Time;durP1;ratioP1;P1;durP2;ratioP2;P2;SDS_P1;SDS_P2;PMS_P1;PMS_P2;Temp;Humidity;BMP_temperature;BMP_pressure;BME280_temperature;BME280_humidity;BME280_pressure;Samples;Min_cycle;Max_cycle;Signal;HPM_P1;HPM_P2
2023/07/06 00:00:48;;;;;;;;;;;;;;;14.53;100.00;101456.59;4983994;28;20424;-70
2023/07/06 00:03:14;;;;;;;;;;;;;;;14.57;100.00;101459.78;4998974;28;20310;-71
2023/07/06 00:05:43;;;;;;;;;;;;;;;14.59;100.00;101453.38;4994879;28;19933;-71
2023/07/06 00:08:09;;;;;;;;;;;;;;;14.60;100.00;101454.19;5003853;28;19929;-71
2023/07/06 00:10:35;;;;;;;;;;;;;;;14.58;100.00;101456.16;4993717;28;19953;-71
2023/07/06 00:13:02;;;;;;;;;;;;;;;14.59;100.00;101455.19;4991701;28;19941;-72
2023/07/06 00:15:28;;;;;;;;;;;;;;;14.58;100.00;101459.66;5007200;28;20371;-72
2023/07/06 00:17:55;;;;;;;;;;;;;;;14.58;100.00;101458.78;4993423;28;20432;-71
2023/07/06 00:20:22;;;;;;;;;;;;;;;14.52;100.00;101468.13;4993095;28;19930;-72
2023/07/06 00:22:48;;;;;;;;;;;;;;;14.50;100.00;101464.00;4974505;28;20016;-72
2023/07/06 00:25:15;;;;;;;;;;;;;;;14.45;100.00;101472.41;4986049;28;20449;-72
2023/07/06 00:27:42;;;;;;;;;;;;;;;14.42;100.00;101462.97;4982747;28;19934;-71
2023/07/06 00:30:15;;;;;;;;;;;;;;;14.37;100.00;101469.72;5001337;28;19949;-71
2023/07/06 00:32:42;;;;;;;;;;;;;;;14.36;100.00;101470.69;4988837;28;20016;-72
2023/07/06 00:35:12;;;;;;;;;;;;;;;14.37;100.00;101464.44;4976100;28;19925;-72
2023/07/06 00:37:38;;;;;;;;;;;;;;;14.40;100.00;101467.56;4989651;28;19960;-72
2023/07/06 00:40:08;;;;;;;;;;;;;;;14.44;100.00;101465.44;4990054;28;20674;-71
2023/07/06 00:42:34;;;;;;;;;;;;;;;14.47;100.00;101469.63;4989814;28;19988;-71
2023/07/06 00:45:03;;;;;;;;;;;;;;;14.50;100.00;101475.38;5003481;28;19929;-73
2023/07/06 00:47:34;;;;;;;;;;;;;;;14.51;100.00;101471.78;4992559;28;19925;-71
2023/07/06 00:50:07;;;;;;;;;;;;;;;14.54;100.00;101473.25;4999315;28;20394;-71
2023/07/06 00:52:36;;;;;;;;;;;;;;;14.49;100.00;101473.75;4994996;28;20020;-71
2023/07/06 00:55:04;;;;;;;;;;;;;;;14.50;100.00;101472.75;5008361;28;19929;-71
2023/07/06 00:57:32;;;;;;;;;;;;;;;14.47;100.00;101473.06;4967158;28;20020;-71
2023/07/06 00:59:58;;;;;;;;;;;;;;;14.56;100.00;101479.22;4999781;28;20012;-71
2023/07/06 01:02:27;;;;;;;;;;;;;;;14.59;100.00;101474.50;4988493;28;19933;-73
2023/07/06 01:04:54;;;;;;;;;;;;;;;14.59;100.00;101479.78;4987914;28;20015;-71
2023/07/06 01:07:22;;;;;;;;;;;;;;;14.64;100.00;101476.66;4985183;28;19965;-70
2023/07/06 01:09:49;;;;;;;;;;;;;;;14.66;100.00;101473.84;4989252;28;19926;-71
2023/07/06 01:12:17;;;;;;;;;;;;;;;14.61;100.00;101471.69;4990551;28;20116;-71
2023/07/06 01:14:45;;;;;;;;;;;;;;;14.62;100.00;101473.34;5000515;28;19925;-71
2023/07/06 01:17:15;;;;;;;;;;;;;;;14.64;100.00;101471.38;4982666;28;19930;-72
2023/07/06 01:19:44;;;;;;;;;;;;;;;14.63;100.00;101475.81;5001347;28;20008;-71
2023/07/06 01:22:24;;;;;;;;;;;;;;;14.65;100.00;101477.50;5008664;28;20405;-71
2023/07/06 01:24:58;;;;;;;;;;;;;;;14.61;100.00;101477.78;4994200;28;19929;-72
2023/07/06 01:27:25;;;;;;;;;;;;;;;14.46;100.00;101476.69;5020729;28;20358;-70
2023/07/06 01:30:10;;;;;;;;;;;;;;;14.41;100.00;101473.69;4985495;28;19936;-71
2023/07/06 01:32:39;;;;;;;;;;;;;;;14.31;100.00;101479.09;4992159;28;19930;-71
2023/07/06 01:35:10;;;;;;;;;;;;;;;14.31;100.00;101478.22;4999334;28;19930;-71
2023/07/06 01:37:38;;;;;;;;;;;;;;;14.32;100.00;101478.09;4999533;28;19930;-72
2023/07/06 01:40:09;;;;;;;;;;;;;;;14.27;100.00;101480.38;4993193;28;19953;-71
2023/07/06 01:42:37;;;;;;;;;;;;;;;14.22;100.00;101480.81;4989696;28;19929;-71
2023/07/06 01:45:05;;;;;;;;;;;;;;;14.17;100.00;101484.91;5005201;28;20590;-72
2023/07/06 01:47:33;;;;;;;;;;;;;;;14.15;100.00;101484.22;4987394;28;20037;-72
2023/07/06 01:50:01;;;;;;;;;;;;;;;14.11;100.00;101480.25;4982403;28;20278;-71
2023/07/06 01:52:34;;;;;;;;;;;;;;;14.10;100.00;101475.97;5010571;28;19987;-71
2023/07/06 01:55:08;;;;;;;;;;;;;;;14.13;100.00;101480.91;4996127;28;19933;-71
2023/07/06 01:57:50;;;;;;;;;;;;;;;14.19;100.00;101475.88;4999245;28;20424;-71
2023/07/06 02:00:29;;;;;;;;;;;;;;;14.19;100.00;101478.50;5003288;28;20424;-74
2023/07/06 02:02:56;;;;;;;;;;;;;;;14.20;100.00;101479.31;5005467;28;19925;-71
2023/07/06 02:05:23;;;;;;;;;;;;;;;14.21;100.00;101475.69;4987022;28;19973;-71
2023/07/06 02:07:49;;;;;;;;;;;;;;;14.18;100.00;101474.19;4994775;28;19953;-71
2023/07/06 02:10:17;;;;;;;;;;;;;;;14.17;100.00;101480.47;5003870;28;20438;-73
2023/07/06 02:12:47;;;;;;;;;;;;;;;14.14;100.00;101474.66;5008304;28;19948;-73
2023/07/06 02:15:18;;;;;;;;;;;;;;;14.16;100.00;101478.81;5009180;28;20305;-73
2023/07/06 02:17:46;;;;;;;;;;;;;;;14.18;100.00;101476.00;5006963;28;20011;-73
2023/07/06 02:20:15;;;;;;;;;;;;;;;14.17;100.00;101471.72;5013388;28;19933;-73
2023/07/06 02:22:42;;;;;;;;;;;;;;;14.14;100.00;101474.66;5008199;28;19930;-73
2023/07/06 02:25:08;;;;;;;;;;;;;;;14.16;100.00;101473.53;5011715;28;19936;-73
2023/07/06 02:27:35;;;;;;;;;;;;;;;14.17;100.00;101475.19;4986440;28;20396;-73
2023/07/06 02:30:01;;;;;;;;;;;;;;;14.19;100.00;101477.66;4998864;28;19933;-73
2023/07/06 02:32:28;;;;;;;;;;;;;;;14.16;100.00;101472.72;5012958;28;19968;-73
2023/07/06 02:34:55;;;;;;;;;;;;;;;14.16;100.00;101473.53;5005473;28;20020;-73
2023/07/06 02:37:23;;;;;;;;;;;;;;;14.21;100.00;101465.97;5009068;28;20374;-73
2023/07/06 02:39:52;;;;;;;;;;;;;;;14.16;100.00;101462.97;4999109;28;19925;-73
2023/07/06 02:42:19;;;;;;;;;;;;;;;14.20;100.00;101471.41;5008796;28;19945;-73
2023/07/06 02:44:45;;;;;;;;;;;;;;;14.17;100.00;101475.19;4984192;28;19936;-73
2023/07/06 02:47:11;;;;;;;;;;;;;;;14.14;100.00;101474.66;5001231;28;19953;-73
2023/07/06 02:49:38;;;;;;;;;;;;;;;14.09;100.00;101480.38;5001495;28;19929;-73
2023/07/06 02:52:05;;;;;;;;;;;;;;;14.11;100.00;101477.59;4986746;28;19961;-73
2023/07/06 02:54:32;;;;;;;;;;;;;;;14.07;100.00;101476.25;4975728;28;19936;-73
2023/07/06 02:57:02;;;;;;;;;;;;;;;14.10;100.00;101478.59;4993276;28;19929;-73
2023/07/06 02:59:29;;;;;;;;;;;;;;;14.11;100.00;101483.69;4999484;28;19930;-73
2023/07/06 03:01:59;;;;;;;;;;;;;;;14.16;100.00;101468.25;5005852;28;20444;-73
2023/07/06 03:04:27;;;;;;;;;;;;;;;14.16;100.00;101477.97;5011484;28;19936;-73
2023/07/06 03:06:55;;;;;;;;;;;;;;;14.16;100.00;101481.44;4989883;28;19934;-73
2023/07/06 03:09:23;;;;;;;;;;;;;;;14.15;100.00;101476.31;4991906;28;19937;-73
2023/07/06 03:11:52;;;;;;;;;;;;;;;14.09;100.00;101479.56;4997400;28;20375;-73
2023/07/06 03:14:21;;;;;;;;;;;;;;;14.06;100.00;101479.88;4995845;28;19929;-73
2023/07/06 03:16:48;;;;;;;;;;;;;;;14.07;100.00;101489.44;5003629;28;19930;-73
2023/07/06 03:19:15;;;;;;;;;;;;;;;14.02;100.00;101493.38;4991723;28;20265;-73
2023/07/06 03:21:42;;;;;;;;;;;;;;;13.96;100.00;101486.06;4991916;28;19929;-73
2023/07/06 03:24:09;;;;;;;;;;;;;;;13.96;100.00;101485.25;5004960;28;19925;-73
2023/07/06 03:26:36;;;;;;;;;;;;;;;13.99;100.00;101498.13;5009329;28;19949;-73
2023/07/06 03:29:04;;;;;;;;;;;;;;;13.95;100.00;101489.66;5003048;28;20330;-73
2023/07/06 03:31:32;;;;;;;;;;;;;;;13.95;100.00;101489.66;4986826;28;20038;-73
2023/07/06 03:33:59;;;;;;;;;;;;;;;13.97;100.00;101500.06;5015496;28;20216;-73
2023/07/06 03:36:25;;;;;;;;;;;;;;;13.95;100.00;101502.84;4988121;28;20012;-74
2023/07/06 03:38:52;;;;;;;;;;;;;;;14.03;100.00;101497.69;5002284;28;19930;-74
2023/07/06 03:41:18;;;;;;;;;;;;;;;14.03;100.00;101496.81;4989200;28;19937;-73
2023/07/06 03:43:45;;;;;;;;;;;;;;;14.08;100.00;101501.66;4991565;28;19953;-73
2023/07/06 03:46:14;;;;;;;;;;;;;;;14.08;100.00;101497.22;5003680;28;20468;-73
2023/07/06 03:48:44;;;;;;;;;;;;;;;14.05;100.00;101500.13;4990793;28;19930;-73
2023/07/06 03:51:11;;;;;;;;;;;;;;;14.01;100.00;101497.00;5000093;28;19936;-73
2023/07/06 03:53:38;;;;;;;;;;;;;;;14.09;100.00;101498.84;5004232;28;19934;-73
2023/07/06 03:56:06;;;;;;;;;;;;;;;14.04;100.00;101498.50;4999204;28;19929;-73
2023/07/06 03:58:33;;;;;;;;;;;;;;;14.02;100.00;101505.75;4992791;28;20160;-72
2023/07/06 04:00:59;;;;;;;;;;;;;;;14.00;100.00;101499.78;5008649;28;20341;-73
2023/07/06 04:03:26;;;;;;;;;;;;;;;13.99;100.00;101501.56;4990398;28;19936;-73
2023/07/06 04:05:53;;;;;;;;;;;;;;;13.98;100.00;101505.22;4989668;28;20301;-73
2023/07/06 04:08:20;;;;;;;;;;;;;;;13.94;100.00;101508.31;4999083;28;19929;-73
2023/07/06 04:10:47;;;;;;;;;;;;;;;13.94;100.00;101501.22;5002894;28;19937;-73
2023/07/06 04:13:14;;;;;;;;;;;;;;;13.89;100.00;101510.56;4992672;28;19933;-72
2023/07/06 04:15:44;;;;;;;;;;;;;;;13.94;100.00;101505.69;4981431;28;19929;-72
2023/07/06 04:18:10;;;;;;;;;;;;;;;13.93;100.00;101502.19;4980890;28;19933;-72
2023/07/06 04:20:37;;;;;;;;;;;;;;;13.97;100.00;101503.53;4979585;28;19926;-71
2023/07/06 04:23:04;;;;;;;;;;;;;;;13.99;100.00;101504.22;4984341;28;20348;-72
2023/07/06 04:25:32;;;;;;;;;;;;;;;14.06;100.00;101508.91;5002619;28;20024;-72
2023/07/06 04:28:02;;;;;;;;;;;;;;;14.03;100.00;101517.94;4986144;28;19949;-71
2023/07/06 04:30:32;;;;;;;;;;;;;;;13.93;100.00;101512.75;4986094;28;19934;-72
2023/07/06 04:32:59;;;;;;;;;;;;;;;13.83;100.00;101520.72;4992222;28;19933;-72
2023/07/06 04:35:26;;;;;;;;;;;;;;;13.88;100.00;101522.06;4976412;28;19929;-72
2023/07/06 04:37:53;;;;;;;;;;;;;;;13.89;100.00;101526.38;4979483;28;19933;-72
2023/07/06 04:40:21;;;;;;;;;;;;;;;13.85;100.00;101526.69;4992264;28;19929;-72
2023/07/06 04:42:48;;;;;;;;;;;;;;;13.86;100.00;101530.16;4989948;28;20449;-72
2023/07/06 04:45:16;;;;;;;;;;;;;;;13.88;100.00;101527.34;4978141;28;19981;-72
2023/07/06 04:47:44;;;;;;;;;;;;;;;13.91;100.00;101534.97;4990074;28;19925;-72
2023/07/06 04:50:17;;;;;;;;;;;;;;;13.84;100.00;101535.59;4996053;28;19926;-72
2023/07/06 04:52:45;;;;;;;;;;;;;;;13.89;100.00;101539.56;4995269;28;19980;-72
2023/07/06 04:55:12;;;;;;;;;;;;;;;13.92;100.00;101541.91;5009136;28;19975;-72
2023/07/06 04:57:41;;;;;;;;;;;;;;;13.92;100.00;101542.75;4976090;28;20472;-72
2023/07/06 05:00:14;;;;;;;;;;;;;;;13.92;100.00;101542.75;4993503;28;19930;-72
2023/07/06 05:02:42;;;;;;;;;;;;;;;13.92;100.00;101540.09;4997177;28;20277;-72
2023/07/06 05:05:11;;;;;;;;;;;;;;;13.95;100.00;101544.25;5001769;28;20599;-72
2023/07/06 05:07:45;;;;;;;;;;;;;;;13.91;100.00;101551.63;4996729;28;19929;-72
2023/07/06 05:10:13;;;;;;;;;;;;;;;13.89;100.00;101544.84;5001973;28;20406;-71
2023/07/06 05:12:40;;;;;;;;;;;;;;;13.97;100.00;101547.56;5005752;28;19930;-72
2023/07/06 05:15:06;;;;;;;;;;;;;;;14.00;100.00;101545.44;5006263;28;19967;-72
2023/07/06 05:17:33;;;;;;;;;;;;;;;14.06;100.00;101546.66;5010545;28;19972;-72
2023/07/06 05:19:59;;;;;;;;;;;;;;;14.04;100.00;101546.81;4996756;28;20016;-72
2023/07/06 05:22:26;;;;;;;;;;;;;;;14.06;100.00;101546.66;4988952;28;19933;-72
2023/07/06 05:24:52;;;;;;;;;;;;;;;14.06;100.00;101546.66;5001803;28;19972;-72
2023/07/06 05:27:19;;;;;;;;;;;;;;;14.12;100.00;101547.88;4983302;28;19936;-72
2023/07/06 05:29:45;;;;;;;;;;;;;;;14.15;100.00;101547.53;4989547;28;20381;-71
2023/07/06 05:32:12;;;;;;;;;;;;;;;14.12;100.00;101551.31;4994117;28;19983;-72
2023/07/06 05:34:38;;;;;;;;;;;;;;;14.14;100.00;101551.19;5012459;28;19992;-72
2023/07/06 05:37:05;;;;;;;;;;;;;;;14.20;100.00;101556.66;4973429;28;20305;-72
2023/07/06 05:39:31;;;;;;;;;;;;;;;14.21;100.00;101554.84;4988044;28;19976;-72
2023/07/06 05:41:57;;;;;;;;;;;;;;;14.26;100.00;101560.50;4999929;28;20354;-72
2023/07/06 05:44:24;;;;;;;;;;;;;;;14.26;100.00;101559.69;5000480;28;20020;-72
2023/07/06 05:46:50;;;;;;;;;;;;;;;14.33;100.00;101563.34;4993833;28;20020;-72
2023/07/06 05:49:16;;;;;;;;;;;;;;;14.47;100.00;101572.56;4993923;28;20496;-72
2023/07/06 05:51:43;;;;;;;;;;;;;;;14.42;100.00;101568.53;4998416;28;19934;-72
2023/07/06 05:54:09;;;;;;;;;;;;;;;14.49;100.00;101571.41;4987070;28;20394;-72
2023/07/06 05:56:37;;;;;;;;;;;;;;;14.38;100.00;101579.56;5001185;28;20036;-71
2023/07/06 05:59:04;;;;;;;;;;;;;;;14.28;100.00;101574.38;4993686;28;19973;-72
2023/07/06 06:01:32;;;;;;;;;;;;;;;14.36;100.00;101579.72;5010120;28;19952;-71
2023/07/06 06:03:58;;;;;;;;;;;;;;;14.32;100.00;101581.00;4987778;28;19929;-71
2023/07/06 06:06:26;;;;;;;;;;;;;;;14.36;100.00;101578.91;4994671;28;20411;-72
2023/07/06 06:08:53;;;;;;;;;;;;;;;14.40;100.00;101585.53;4986078;28;20394;-71
2023/07/06 06:11:21;;;;;;;;;;;;;;;14.43;100.00;101578.13;5001487;28;20371;-71
2023/07/06 06:13:49;;;;;;;;;;;;;;;14.54;100.00;101578.88;5010870;28;19929;-72
2023/07/06 06:16:16;;;;;;;;;;;;;;;14.67;100.00;101584.59;4996397;28;19930;-71
2023/07/06 06:18:44;;;;;;;;;;;;;;;14.70;100.00;101594.03;5003247;28;20540;-71
2023/07/06 06:21:10;;;;;;;;;;;;;;;14.73;100.00;101586.63;5002718;28;20397;-71
2023/07/06 06:23:37;;;;;;;;;;;;;;;14.78;100.00;101594.09;5002247;28;19937;-71
2023/07/06 06:26:03;;;;;;;;;;;;;;;14.72;100.00;101586.78;5000397;28;20001;-71
2023/07/06 06:28:30;;;;;;;;;;;;;;;14.75;100.00;101589.94;4988132;28;19925;-71
2023/07/06 06:30:56;;;;;;;;;;;;;;;14.73;100.00;101596.38;4993093;28;20390;-69
2023/07/06 06:33:22;;;;;;;;;;;;;;;14.77;100.00;101601.16;4980160;28;19929;-69
2023/07/06 06:35:50;;;;;;;;;;;;;;;14.86;100.00;101599.44;5005692;28;20457;-69
2023/07/06 06:38:17;;;;;;;;;;;;;;;14.83;100.00;101610.28;5009603;28;20008;-69
2023/07/06 06:40:44;;;;;;;;;;;;;;;14.94;100.00;101609.22;4983748;28;19929;-69
2023/07/06 06:43:10;;;;;;;;;;;;;;;15.07;100.00;101601.69;4995018;28;19964;-69
2023/07/06 06:45:39;;;;;;;;;;;;;;;15.09;100.00;101612.09;4990168;28;19937;-68
2023/07/06 06:48:05;;;;;;;;;;;;;;;15.08;100.00;101616.56;4999494;28;19940;-68
2023/07/06 06:50:32;;;;;;;;;;;;;;;15.16;100.00;101621.88;4995605;28;19983;-69
2023/07/06 06:52:58;;;;;;;;;;;;;;;15.27;100.00;101619.94;4978188;28;20422;-69
2023/07/06 06:55:25;;;;;;;;;;;;;;;15.38;100.00;101631.06;4997932;28;19965;-69
2023/07/06 06:57:52;;;;;;;;;;;;;;;15.37;100.00;101637.38;5001476;28;19939;-71
2023/07/06 07:00:18;;;;;;;;;;;;;;;15.36;100.00;101626.94;5009297;28;19980;-69
2023/07/06 07:02:45;;;;;;;;;;;;;;;15.52;100.00;101631.47;4993064;28;19926;-69
2023/07/06 07:05:12;;;;;;;;;;;;;;;15.50;100.00;101628.16;5002624;28;19935;-71
2023/07/06 07:07:39;;;;;;;;;;;;;;;15.58;100.00;101631.69;4999148;28;19965;-69
2023/07/06 07:10:09;;;;;;;;;;;;;;;15.69;100.00;101645.59;4995193;28;19929;-68
2023/07/06 07:12:39;;;;;;;;;;;;;;;15.65;100.00;101636.31;4993767;28;19984;-71
2023/07/06 07:15:07;;;;;;;;;;;;;;;15.69;100.00;101638.47;4977901;28;20083;-67
2023/07/06 07:17:33;;;;;;;;;;;;;;;15.60;100.00;101640.28;5007403;28;19930;-67
2023/07/06 07:20:00;;;;;;;;;;;;;;;15.71;100.00;101643.63;4993726;28;19930;-66
2023/07/06 07:22:27;;;;;;;;;;;;;;;15.71;100.00;101644.44;4985250;28;19933;-67
2023/07/06 07:24:53;;;;;;;;;;;;;;;15.73;100.00;101647.78;5003644;28;20016;-66
2023/07/06 07:27:20;;;;;;;;;;;;;;;15.72;100.00;101642.59;4991944;28;19971;-69
2023/07/06 07:29:47;;;;;;;;;;;;;;;15.73;100.00;101653.06;4981029;28;19929;-69
2023/07/06 07:32:14;;;;;;;;;;;;;;;15.75;100.00;101655.56;4993078;28;19930;-68
2023/07/06 07:34:40;;;;;;;;;;;;;;;15.82;100.00;101662.69;4977511;28;20497;-68
2023/07/06 07:37:13;;;;;;;;;;;;;;;15.93;100.00;101664.19;4988613;28;19980;-68
2023/07/06 07:39:41;;;;;;;;;;;;;;;16.07;100.00;101662.75;5000432;28;19980;-68
2023/07/06 07:42:08;;;;;;;;;;;;;;;16.17;100.00;101660.81;4985745;28;19929;-73
2023/07/06 07:44:34;;;;;;;;;;;;;;;16.31;100.00;101661.16;5009378;28;19932;-67
2023/07/06 07:47:02;;;;;;;;;;;;;;;16.51;100.00;101659.03;4990834;28;20437;-68
2023/07/06 07:49:29;;;;;;;;;;;;;;;16.53;100.00;101665.81;4999497;28;20390;-67
2023/07/06 07:51:56;;;;;;;;;;;;;;;16.66;100.00;101665.31;5003064;28;19977;-67
2023/07/06 07:54:23;;;;;;;;;;;;;;;16.72;100.00;101666.44;4993909;28;19955;-67
2023/07/06 07:56:53;;;;;;;;;;;;;;;16.72;100.00;101677.91;5005857;28;20326;-67
2023/07/06 07:59:20;;;;;;;;;;;;;;;16.68;100.00;101678.38;4991851;28;20016;-67
2023/07/06 08:01:47;;;;;;;;;;;;;;;16.66;100.00;101672.41;4993647;28;19926;-68
2023/07/06 08:04:14;;;;;;;;;;;;;;;16.61;100.00;101671.09;5008113;28;19956;-67
2023/07/06 08:06:41;;;;;;;;;;;;;;;16.75;100.00;101680.19;4994714;28;19931;-67
2023/07/06 08:09:08;;;;;;;;;;;;;;;16.68;100.00;101679.22;5002217;28;19929;-66
2023/07/06 08:11:38;;;;;;;;;;;;;;;16.83;100.00;101675.94;4985159;28;19989;-67
2023/07/06 08:14:08;;;;;;;;;;;;;;;16.91;100.00;101681.22;5003173;28;20487;-66
2023/07/06 08:16:34;;;;;;;;;;;;;;;16.92;100.00;101685.53;4991735;28;20020;-67
2023/07/06 08:19:02;;;;;;;;;;;;;;;17.12;100.00;101684.16;4995117;28;19926;-66
2023/07/06 08:21:45;;;;;;;;;;;;;;;16.99;100.00;101692.66;4976186;28;19933;-66
2023/07/06 08:24:32;;;;;;;;;;;;;;;17.23;100.00;101695.41;4996233;28;19949;-69
2023/07/06 08:26:58;;;;;;;;;;;;;;;17.46;100.00;101691.03;5008118;28;19933;-66
2023/07/06 08:29:26;;;;;;;;;;;;;;;17.44;100.00;101692.22;4994281;28;19926;-66
2023/07/06 08:31:53;;;;;;;;;;;;;;;17.39;100.00;101696.22;5008506;28;20382;-66
2023/07/06 08:34:19;;;;;;;;;;;;;;;17.39;100.00;101696.22;5000818;28;20455;-67
2023/07/06 08:36:45;;;;;;;;;;;;;;;17.51;100.00;101698.50;4977881;28;20451;-68
2023/07/06 08:39:12;;;;;;;;;;;;;;;17.63;100.00;101702.44;4991553;28;19929;-68
2023/07/06 08:41:41;;;;;;;;;;;;;;;17.72;100.00;101705.88;5007355;28;19932;-66
2023/07/06 08:44:10;;;;;;;;;;;;;;;17.82;100.00;101711.81;5009280;28;19929;-67
2023/07/06 08:46:38;;;;;;;;;;;;;;;17.75;100.00;101722.28;5003111;28;19929;-65
2023/07/06 08:49:39;;;;;;;;;;;;;;;18.03;100.00;101710.41;4994288;28;19929;-66
2023/07/06 08:52:06;;;;;;;;;;;;;;;18.00;100.00;101716.09;4973002;28;19932;-67
2023/07/06 08:54:34;;;;;;;;;;;;;;;17.98;100.00;101716.25;4994192;28;20023;-66
2023/07/06 08:57:01;;;;;;;;;;;;;;;18.12;100.00;101714.69;5002918;28;19936;-66
2023/07/06 08:59:35;;;;;;;;;;;;;;;18.21;100.00;101718.09;5007227;28;20346;-67
2023/07/06 09:02:20;;;;;;;;;;;;;;;18.59;100.00;101713.72;4998488;28;19926;-66
2023/07/06 09:04:48;;;;;;;;;;;;;;;18.63;100.00;101727.47;4969141;28;20385;-66
2023/07/06 09:07:15;;;;;;;;;;;;;;;18.99;100.00;101721.56;4995357;28;19936;-66
2023/07/06 09:09:44;;;;;;;;;;;;;;;19.36;100.00;101718.03;5002971;28;20421;-68
2023/07/06 09:12:24;;;;;;;;;;;;;;;19.63;100.00;101721.88;4989332;28;19980;-65
2023/07/06 09:14:56;;;;;;;;;;;;;;;19.83;98.25;101722.19;4990113;28;20297;-66
2023/07/06 09:17:23;;;;;;;;;;;;;;;19.90;96.47;101725.75;4985064;28;19976;-68
2023/07/06 09:19:51;;;;;;;;;;;;;;;19.74;91.59;101724.13;4979551;28;20349;-66
2023/07/06 09:22:18;;;;;;;;;;;;;;;19.67;94.52;101730.34;5002436;28;19953;-67
2023/07/06 09:24:45;;;;;;;;;;;;;;;19.88;99.93;101721.63;4995002;28;19995;-66
2023/07/06 09:27:17;;;;;;;;;;;;;;;20.04;89.93;101731.25;5008021;28;19932;-66
2023/07/06 09:29:44;;;;;;;;;;;;;;;20.22;87.87;101728.16;5002859;28;19925;-67
2023/07/06 09:32:11;;;;;;;;;;;;;;;19.91;87.79;101742.53;5002103;28;19979;-65
2023/07/06 09:34:38;;;;;;;;;;;;;;;19.53;93.48;101737.31;4995886;28;19959;-66
2023/07/06 09:37:06;;;;;;;;;;;;;;;19.52;98.12;101733.00;4994513;28;19926;-66
2023/07/06 09:39:32;;;;;;;;;;;;;;;19.75;98.11;101730.25;4997583;28;19929;-68
2023/07/06 09:42:01;;;;;;;;;;;;;;;19.77;100.00;101730.09;4987971;28;19929;-67
2023/07/06 09:44:29;;;;;;;;;;;;;;;19.77;94.89;101735.41;4985816;28;19972;-68
2023/07/06 09:46:57;;;;;;;;;;;;;;;19.77;93.69;101735.41;5000410;28;20567;-67
2023/07/06 09:49:28;;;;;;;;;;;;;;;19.94;92.58;101732.34;4995246;28;19980;-67
2023/07/06 09:52:05;;;;;;;;;;;;;;;20.22;91.39;101736.97;4988703;28;20426;-67
2023/07/06 09:54:34;;;;;;;;;;;;;;;20.15;86.03;101730.78;4982801;28;19929;-66
2023/07/06 09:57:08;;;;;;;;;;;;;;;20.46;89.05;101730.47;5001122;28;19972;-67
2023/07/06 09:59:43;;;;;;;;;;;;;;;20.77;89.57;101726.69;5002742;28;19980;-67
2023/07/06 10:02:21;;;;;;;;;;;;;;;20.67;84.86;101731.53;4993984;28;20618;-67
2023/07/06 10:04:53;;;;;;;;;;;;;;;20.92;83.90;101729.28;4986992;28;19929;-68
2023/07/06 10:07:44;;;;;;;;;;;;;;;20.87;84.62;101729.84;4992164;28;19957;-67
2023/07/06 10:10:30;;;;;;;;;;;;;;;21.08;87.72;101725.50;4994419;28;19934;-70
2023/07/06 10:13:00;;;;;;;;;;;;;;;21.14;88.12;101728.19;5005227;28;19985;-68
2023/07/06 10:15:32;;;;;;;;;;;;;;;21.24;86.63;101724.38;4992756;28;20387;-70
2023/07/06 10:18:11;;;;;;;;;;;;;;;21.41;80.70;101719.56;4987474;28;19929;-67
2023/07/06 10:20:43;;;;;;;;;;;;;;;21.72;76.78;101727.16;5006682;28;19925;-68
2023/07/06 10:23:16;;;;;;;;;;;;;;;21.70;75.77;101723.84;4991977;28;20694;-68
2023/07/06 10:26:04;;;;;;;;;;;;;;;21.11;79.20;101715.28;5006946;28;19941;-68
2023/07/06 10:28:40;;;;;;;;;;;;;;;21.37;80.01;101715.66;4990975;28;19926;-69
2023/07/06 10:31:08;;;;;;;;;;;;;;;21.33;75.99;101710.69;5003511;28;19972;-68
2023/07/06 10:33:44;;;;;;;;;;;;;;;21.50;76.71;101708.56;4987336;28;19926;-68
2023/07/06 10:36:12;;;;;;;;;;;;;;;21.77;68.76;101710.53;4990127;28;20016;-70
2023/07/06 10:38:38;;;;;;;;;;;;;;;21.95;69.31;101708.13;4992042;28;19941;-70
2023/07/06 10:41:10;;;;;;;;;;;;;;;21.90;68.56;101707.91;5007126;28;19949;-69
2023/07/06 10:43:40;;;;;;;;;;;;;;;21.75;71.02;101701.88;5000434;28;20146;-68
2023/07/06 10:46:26;;;;;;;;;;;;;;;21.72;69.05;101711.94;4992356;28;19930;-68
2023/07/06 10:48:59;;;;;;;;;;;;;;;21.62;71.95;101713.31;5011682;28;19930;-69
2023/07/06 10:51:27;;;;;;;;;;;;;;;21.76;67.93;101717.72;4988636;28;19926;-68
2023/07/06 10:54:06;;;;;;;;;;;;;;;21.98;66.97;101713.06;5002504;28;20394;-70
2023/07/06 10:56:45;;;;;;;;;;;;;;;22.26;67.74;101712.16;4992572;28;20371;-68
2023/07/06 10:59:17;;;;;;;;;;;;;;;22.47;65.21;101713.84;5011817;28;19988;-69
2023/07/06 11:01:45;;;;;;;;;;;;;;;22.36;65.04;101717.09;4994252;28;19944;-70
2023/07/06 11:04:30;;;;;;;;;;;;;;;22.41;62.47;101720.81;4994138;28;19926;-69
2023/07/06 11:06:57;;;;;;;;;;;;;;;22.61;62.83;101717.34;5005901;28;19925;-69
2023/07/06 11:09:23;;;;;;;;;;;;;;;22.98;63.46;101723.09;4994651;28;19937;-69
2023/07/06 11:11:51;;;;;;;;;;;;;;;23.20;64.28;101718.38;5010920;28;19955;-68
2023/07/06 11:14:34;;;;;;;;;;;;;;;23.31;59.51;101717.75;5003088;28;20045;-69
2023/07/06 11:17:19;;;;;;;;;;;;;;;23.20;59.34;101713.84;5009758;28;19940;-67
2023/07/06 11:19:51;;;;;;;;;;;;;;;23.08;58.84;101715.50;4986790;28;19941;-69
2023/07/06 11:22:20;;;;;;;;;;;;;;;23.07;60.18;101716.53;4986933;28;19932;-68
2023/07/06 11:24:53;;;;;;;;;;;;;;;23.43;60.79;101715.25;4996002;28;19953;-67
2023/07/06 11:27:30;;;;;;;;;;;;;;;23.38;59.88;101713.16;4997102;28;19960;-68
2023/07/06 11:30:12;;;;;;;;;;;;;;;23.35;56.59;101720.81;4992082;28;19983;-67
2023/07/06 11:32:50;;;;;;;;;;;;;;;23.17;57.12;101724.97;4993047;28;21334;-67
2023/07/06 11:35:43;;;;;;;;;;;;;;;23.43;59.41;101715.25;4992704;28;20349;-67
2023/07/06 11:38:18;;;;;;;;;;;;;;;23.80;58.39;101716.38;4983384;28;19934;-68
2023/07/06 11:40:45;;;;;;;;;;;;;;;23.67;54.92;101717.19;4986016;28;20016;-69
2023/07/06 11:43:18;;;;;;;;;;;;;;;24.02;56.42;101713.38;5002094;28;19937;-66
2023/07/06 11:45:52;;;;;;;;;;;;;;;23.93;55.27;101718.16;4993345;28;19968;-68
2023/07/06 11:48:37;;;;;;;;;;;;;;;23.27;56.42;101728.03;4994685;28;19925;-66
2023/07/06 11:51:04;;;;;;;;;;;;;;;23.29;57.00;101714.44;5005920;28;19936;-68
2023/07/06 11:56:50;;;;;;;;;;;;;;;23.64;54.14;101719.50;4968286;28;20036;-66
2023/07/06 11:59:36;;;;;;;;;;;;;;;23.61;53.33;101719.91;4999171;28;20434;-66
2023/07/06 12:02:10;;;;;;;;;;;;;;;23.68;53.23;101720.72;4994097;28;19956;-67
2023/07/06 12:04:39;;;;;;;;;;;;;;;24.07;54.81;101711.72;4980963;28;20028;-69
2023/07/06 12:07:20;;;;;;;;;;;;;;;24.10;54.03;101718.47;4999545;28;20012;-66
2023/07/06 12:09:47;;;;;;;;;;;;;;;23.90;54.02;101718.59;5021593;28;20457;-65
2023/07/06 12:12:16;;;;;;;;;;;;;;;23.82;55.49;101714.31;4990498;28;19930;-65
2023/07/06 12:14:43;;;;;;;;;;;;;;;23.71;53.25;101722.97;4991408;28;20024;-66
2023/07/06 12:17:11;;;;;;;;;;;;;;;23.65;54.72;101718.47;4989361;28;19929;-66
2023/07/06 12:19:41;;;;;;;;;;;;;;;23.43;54.27;101712.56;5001464;28;20361;-66
2023/07/06 12:22:13;;;;;;;;;;;;;;;23.25;55.41;101718.56;4998539;28;20297;-65
2023/07/06 12:24:39;;;;;;;;;;;;;;;23.22;55.69;101722.47;5007367;28;19976;-67
2023/07/06 12:27:12;;;;;;;;;;;;;;;22.84;56.02;101724.97;5018321;28;19925;-65
2023/07/06 12:29:38;;;;;;;;;;;;;;;22.70;57.73;101730.31;4983242;28;20453;-68
2023/07/06 12:32:08;;;;;;;;;;;;;;;22.54;57.51;101732.53;4995634;28;19929;-67
2023/07/06 12:34:37;;;;;;;;;;;;;;;22.63;59.64;101723.31;4986510;28;19936;-68
2023/07/06 12:37:03;;;;;;;;;;;;;;;22.61;58.19;101723.50;4998419;28;20401;-66
2023/07/06 12:39:34;;;;;;;;;;;;;;;22.66;59.53;101723.72;4993906;28;20103;-67
2023/07/06 12:42:00;;;;;;;;;;;;;;;22.51;59.11;101731.13;4990670;28;19929;-67
2023/07/06 12:44:29;;;;;;;;;;;;;;;22.44;58.94;101720.41;4999696;28;19973;-68